Time;durP1;ratioP1;P1;durP2;ratioP2;P2;SDS_P1;SDS_P2;PMS_P1;PMS_P2;Temp;Humidity;BMP_temperature;BMP_pressure;BME280_temperature;BME280_humidity;BME280_pressure;Samples;Min_cycle;Max_cycle;Signal;HPM_P1;HPM_P2
2021/01/01 00:00:32;;;;;;;5.35;3.80;;;11.80;99.90;;;;;;4996698;28;20460;-28
2021/01/01 00:03:02;;;;;;;6.80;3.10;;;11.80;99.90;;;;;;5012854;28;20253;-28
2021/01/01 00:05:34;;;;;;;4.07;2.92;;;11.80;99.90;;;;;;5012411;28;20493;-29
2021/01/01 00:08:04;;;;;;;3.87;2.57;;;11.80;99.90;;;;;;5012418;28;20189;-29
2021/01/01 00:10:34;;;;;;;3.42;2.42;;;11.70;99.90;;;;;;5012421;28;20495;-28
2021/01/01 00:13:04;;;;;;;8.68;3.10;;;11.60;99.90;;;;;;5012281;28;20226;-28
2021/01/01 00:15:34;;;;;;;5.68;3.20;;;11.60;99.90;;;;;;5011949;28;20197;-28
2021/01/01 00:18:04;;;;;;;6.40;2.60;;;11.60;99.90;;;;;;5010387;28;20614;-29
2021/01/01 00:20:41;;;;;;;5.18;2.60;;;11.60;99.90;;;;;;5012075;28;20448;-29
2021/01/01 00:23:13;;;;;;;6.88;2.50;;;11.60;99.90;;;;;;5002293;28;20276;-27
2021/01/01 00:25:43;;;;;;;2.20;1.60;;;11.50;99.90;;;;;;5011746;28;20230;-28
2021/01/01 00:28:13;;;;;;;5.75;2.20;;;11.50;99.90;;;;;;5005626;28;20689;-28
2021/01/01 00:30:43;;;;;;;2.45;1.92;;;11.50;99.90;;;;;;5010485;28;20207;-28
2021/01/01 00:33:13;;;;;;;8.32;2.47;;;11.40;99.90;;;;;;5009958;28;20228;-28
2021/01/01 00:35:44;;;;;;;7.05;3.47;;;11.40;99.90;;;;;;5002259;28;20201;-28
2021/01/01 00:38:15;;;;;;;6.80;2.85;;;11.30;99.90;;;;;;5013094;28;20212;-28
2021/01/01 00:40:45;;;;;;;5.93;3.28;;;11.20;99.90;;;;;;5012392;28;20201;-28
2021/01/01 00:43:15;;;;;;;4.85;2.95;;;11.20;99.90;;;;;;5011288;28;20252;-28
2021/01/01 00:45:45;;;;;;;4.90;2.55;;;11.20;99.90;;;;;;5011782;28;20726;-28
2021/01/01 00:48:15;;;;;;;4.57;1.83;;;11.20;99.90;;;;;;5011890;28;20200;-28
2021/01/01 00:50:46;;;;;;;6.07;2.50;;;11.20;99.90;;;;;;5012258;28;20206;-27
2021/01/01 00:53:16;;;;;;;7.55;2.65;;;11.10;99.90;;;;;;5012020;28;20291;-27
2021/01/01 00:55:46;;;;;;;3.15;2.28;;;11.10;99.90;;;;;;5011883;28;20267;-28
2021/01/01 00:58:16;;;;;;;5.03;3.20;;;11.10;99.90;;;;;;5011798;28;20211;-28
2021/01/01 01:00:46;;;;;;;5.82;2.65;;;11.10;99.90;;;;;;5011288;28;20887;-28
2021/01/01 01:03:16;;;;;;;4.75;3.25;;;11.10;99.90;;;;;;5012074;28;20410;-28
2021/01/01 01:05:47;;;;;;;5.20;3.33;;;11.10;99.90;;;;;;5009123;28;20258;-27
2021/01/01 01:08:17;;;;;;;8.55;3.17;;;11.10;99.90;;;;;;5008923;28;20231;-28
2021/01/01 01:10:47;;;;;;;9.05;5.00;;;11.00;99.90;;;;;;5007917;28;20203;-28
2021/01/01 01:13:17;;;;;;;5.40;4.80;;;11.00;99.90;;;;;;5009186;28;20290;-28
2021/01/01 01:15:47;;;;;;;7.82;3.53;;;10.90;99.90;;;;;;5023239;28;20291;-28
2021/01/01 01:18:17;;;;;;;5.95;4.50;;;10.90;99.90;;;;;;5011582;28;20199;-29
2021/01/01 01:20:49;;;;;;;9.52;4.50;;;10.90;99.90;;;;;;5011072;28;20287;-29
2021/01/01 01:23:19;;;;;;;6.25;3.50;;;10.90;99.90;;;;;;5010801;28;20193;-28
2021/01/01 01:25:49;;;;;;;5.07;4.00;;;10.90;99.90;;;;;;5014436;28;20225;-28
2021/01/01 01:28:20;;;;;;;6.65;5.18;;;11.00;99.90;;;;;;5010524;28;20267;-29
2021/01/01 01:30:50;;;;;;;6.07;5.10;;;10.90;99.90;;;;;;5014521;28;20534;-30
2021/01/01 01:33:20;;;;;;;7.10;3.35;;;10.90;99.90;;;;;;5013405;28;20217;-28
2021/01/01 01:35:51;;;;;;;5.10;3.83;;;11.00;99.90;;;;;;5010010;28;20251;-29
2021/01/01 01:38:21;;;;;;;4.43;2.95;;;11.10;99.90;;;;;;5015782;28;20196;-27
2021/01/01 01:40:51;;;;;;;4.50;3.53;;;11.00;99.90;;;;;;5009978;28;20551;-27
2021/01/01 01:43:21;;;;;;;5.10;4.50;;;10.90;99.90;;;;;;5011079;28;20235;-29
2021/01/01 01:45:52;;;;;;;7.15;4.72;;;10.90;99.90;;;;;;5010178;28;20279;-29
2021/01/01 01:48:27;;;;;;;6.85;5.80;;;10.90;99.90;;;;;;5001132;28;20197;-28
2021/01/01 01:50:58;;;;;;;9.35;7.10;;;10.90;99.90;;;;;;5020161;28;20230;-28
2021/01/01 01:53:34;;;;;;;8.15;5.63;;;10.80;99.90;;;;;;5008156;28;20255;-28
2021/01/01 01:56:05;;;;;;;11.00;6.78;;;10.80;99.90;;;;;;5009327;28;20232;-28
2021/01/01 01:58:36;;;;;;;8.30;6.45;;;10.90;99.90;;;;;;5012430;28;20222;-27
2021/01/01 02:01:06;;;;;;;8.75;6.53;;;10.90;99.90;;;;;;5023324;28;20662;-28
2021/01/01 02:03:36;;;;;;;11.10;7.20;;;10.90;99.90;;;;;;5010556;28;20200;-28
2021/01/01 02:06:07;;;;;;;7.97;6.82;;;10.90;99.90;;;;;;5009783;28;20290;-27
2021/01/01 02:08:37;;;;;;;7.70;6.88;;;10.90;99.90;;;;;;5011451;28;20561;-29
2021/01/01 02:11:08;;;;;;;8.65;7.70;;;10.90;99.90;;;;;;5008912;28;20213;-28
2021/01/01 02:13:39;;;;;;;9.55;7.70;;;10.90;99.90;;;;;;5009152;28;20197;-28
2021/01/01 02:16:10;;;;;;;9.93;8.18;;;10.90;99.90;;;;;;5006470;28;20202;-28
2021/01/01 02:18:47;;;;;;;9.82;8.82;;;11.00;99.90;;;;;;5008669;28;20212;-29
2021/01/01 02:21:19;;;;;;;11.32;8.45;;;11.00;99.90;;;;;;5008652;28;20564;-28
2021/01/01 02:23:50;;;;;;;12.23;10.95;;;11.10;99.90;;;;;;5008719;28;21610;-28
2021/01/01 02:26:20;;;;;;;12.65;11.35;;;11.10;99.90;;;;;;5006535;28;20216;-29
2021/01/01 02:28:50;;;;;;;12.40;11.25;;;11.00;99.90;;;;;;5010628;28;20196;-29
2021/01/01 02:31:21;;;;;;;11.75;9.57;;;11.00;99.90;;;;;;5008234;28;20235;-29
2021/01/01 02:33:51;;;;;;;10.13;9.23;;;11.10;99.90;;;;;;5008602;28;20343;-28
2021/01/01 02:36:21;;;;;;;15.27;12.93;;;11.10;99.90;;;;;;5006183;28;20205;-28
2021/01/01 02:38:52;;;;;;;12.13;10.82;;;11.10;99.90;;;;;;5008762;28;20227;-29
2021/01/01 02:41:22;;;;;;;12.20;10.80;;;11.10;99.90;;;;;;5008383;28;20246;-29
2021/01/01 02:43:52;;;;;;;14.13;10.02;;;11.20;99.90;;;;;;5008518;28;20355;-28
2021/01/01 02:46:22;;;;;;;13.75;11.60;;;11.10;99.90;;;;;;5008349;28;20263;-29
2021/01/01 02:48:52;;;;;;;12.20;10.50;;;11.10;99.90;;;;;;5008720;28;20203;-27
2021/01/01 02:51:22;;;;;;;13.80;12.50;;;11.00;99.90;;;;;;5006227;28;20227;-28
2021/01/01 02:53:53;;;;;;;14.88;13.27;;;10.90;99.90;;;;;;5008579;28;20455;-28
2021/01/01 02:56:23;;;;;;;11.90;10.70;;;11.00;99.90;;;;;;5007875;28;20569;-28
2021/01/01 02:58:53;;;;;;;13.98;11.00;;;11.00;99.90;;;;;;5008610;28;20597;-28
2021/01/01 03:01:23;;;;;;;10.47;9.30;;;11.10;99.90;;;;;;5006853;28;20310;-28
2021/01/01 03:03:53;;;;;;;9.73;8.82;;;11.10;99.90;;;;;;5006193;28;20483;-29
2021/01/01 03:06:23;;;;;;;9.32;7.60;;;11.10;99.90;;;;;;5010056;28;20225;-28
2021/01/01 03:08:55;;;;;;;12.82;8.38;;;11.10;99.90;;;;;;5008801;28;20197;-29
2021/01/01 03:11:25;;;;;;;13.75;10.68;;;11.20;99.90;;;;;;5008245;28;20234;-28
2021/01/01 03:13:55;;;;;;;14.73;9.85;;;11.10;99.90;;;;;;5008921;28;20688;-29
2021/01/01 03:16:25;;;;;;;11.32;10.00;;;11.10;99.90;;;;;;5007023;28;20286;-29
2021/01/01 03:18:55;;;;;;;12.00;10.85;;;11.10;99.90;;;;;;5006013;28;20213;-26
2021/01/01 03:21:25;;;;;;;13.30;11.38;;;11.10;99.90;;;;;;5008175;28;20220;-28
2021/01/01 03:23:56;;;;;;;13.47;12.07;;;11.10;99.90;;;;;;5009204;28;20267;-27
2021/01/01 03:26:26;;;;;;;17.15;12.43;;;11.00;99.90;;;;;;5007577;28;20490;-27
2021/01/01 03:28:56;;;;;;;11.60;10.27;;;11.10;99.90;;;;;;5008826;28;20259;-28
2021/01/01 03:31:26;;;;;;;12.70;10.88;;;11.10;99.90;;;;;;5007945;28;20223;-28
2021/01/01 03:33:56;;;;;;;11.82;10.63;;;11.10;99.90;;;;;;5007305;28;20577;-28
2021/01/01 03:36:27;;;;;;;9.65;8.77;;;11.10;99.90;;;;;;5006919;28;20204;-27
2021/01/01 03:38:58;;;;;;;9.93;8.93;;;11.20;99.90;;;;;;5009490;28;20208;-28
2021/01/01 03:41:28;;;;;;;10.93;9.70;;;11.10;99.90;;;;;;5007865;28;20241;-28
2021/01/01 03:43:58;;;;;;;12.48;11.18;;;11.10;99.90;;;;;;5004738;28;20262;-28
2021/01/01 03:46:28;;;;;;;13.07;11.33;;;11.00;99.90;;;;;;5004729;28;20460;-28
2021/01/01 03:48:58;;;;;;;12.07;9.57;;;11.10;99.90;;;;;;5006893;28;20446;-28
2021/01/01 03:51:30;;;;;;;10.40;9.32;;;11.00;99.90;;;;;;5002082;28;20205;-28
2021/01/01 03:54:01;;;;;;;10.52;9.45;;;11.00;99.90;;;;;;5008163;28;20567;-28
2021/01/01 03:56:31;;;;;;;12.40;11.07;;;11.10;99.90;;;;;;5007075;28;20189;-28
2021/01/01 03:59:01;;;;;;;11.30;10.13;;;11.00;99.90;;;;;;5006515;28;20205;-28
2021/01/01 04:01:32;;;;;;;11.13;10.02;;;11.00;99.90;;;;;;5002039;28;20200;-28
2021/01/01 04:04:02;;;;;;;11.27;9.63;;;11.00;99.90;;;;;;5012666;28;20193;-28
2021/01/01 04:06:32;;;;;;;10.93;9.85;;;11.00;99.90;;;;;;5009874;28;21000;-28
2021/01/01 04:09:03;;;;;;;9.68;8.10;;;11.00;99.90;;;;;;5012631;28;20261;-28
2021/01/01 04:11:37;;;;;;;10.15;9.15;;;11.10;99.90;;;;;;5011525;28;20319;-28
2021/01/01 04:14:07;;;;;;;9.48;8.48;;;11.00;99.90;;;;;;5011560;28;20206;-28
2021/01/01 04:16:44;;;;;;;9.82;8.93;;;11.00;99.90;;;;;;5012472;28;20667;-29
2021/01/01 04:19:14;;;;;;;9.68;8.75;;;10.90;99.90;;;;;;5012112;28;20237;-26
2021/01/01 04:21:48;;;;;;;10.18;9.15;;;10.80;99.90;;;;;;5012169;28;20206;-29
2021/01/01 04:24:20;;;;;;;10.93;9.85;;;10.90;99.90;;;;;;5015684;28;20196;-29
2021/01/01 04:26:50;;;;;;;15.23;10.88;;;10.90;99.90;;;;;;5011466;28;20263;-29
2021/01/01 04:29:20;;;;;;;12.68;11.07;;;10.80;99.90;;;;;;5011399;28;20714;-28
2021/01/01 04:31:50;;;;;;;10.80;9.80;;;10.70;99.90;;;;;;5011656;28;20270;-28
2021/01/01 04:34:20;;;;;;;10.32;9.43;;;10.80;99.90;;;;;;4995431;28;20200;-28
2021/01/01 04:36:50;;;;;;;10.00;9.00;;;10.80;99.90;;;;;;5008476;28;20200;-28
2021/01/01 04:39:21;;;;;;;10.52;9.52;;;10.80;99.90;;;;;;5011597;28;20589;-29
2021/01/01 04:41:56;;;;;;;12.05;9.35;;;10.70;99.90;;;;;;5010266;28;20212;-29
2021/01/01 04:44:27;;;;;;;9.98;9.02;;;10.70;99.90;;;;;;5011178;28;20203;-28
2021/01/01 04:47:00;;;;;;;12.10;9.73;;;10.70;99.90;;;;;;5010025;28;20243;-28
2021/01/01 04:49:31;;;;;;;11.40;10.40;;;10.70;99.90;;;;;;5002552;28;20195;-28
2021/01/01 04:52:04;;;;;;;11.40;10.35;;;10.80;99.90;;;;;;5010168;28;20246;-29
2021/01/01 04:54:36;;;;;;;11.20;10.15;;;10.90;99.90;;;;;;5007708;28;20246;-29
2021/01/01 04:57:07;;;;;;;12.27;11.07;;;10.80;99.90;;;;;;5011505;28;20594;-28
2021/01/01 04:59:37;;;;;;;11.45;10.50;;;10.80;99.90;;;;;;5006089;28;20194;-28
2021/01/01 05:02:07;;;;;;;10.93;10.02;;;10.70;99.90;;;;;;5000647;28;20221;-29
2021/01/01 05:04:37;;;;;;;12.00;10.90;;;10.70;99.90;;;;;;4997465;28;20205;-29
2021/01/01 05:07:07;;;;;;;12.57;11.32;;;10.70;99.90;;;;;;5011378;28;20259;-29
2021/01/01 05:09:40;;;;;;;12.68;11.57;;;10.70;99.90;;;;;;5010569;28;20201;-27
2021/01/01 05:12:11;;;;;;;11.88;10.77;;;10.70;99.90;;;;;;5009635;28;20271;-27
2021/01/01 05:14:42;;;;;;;12.50;11.30;;;10.70;99.90;;;;;;5009158;28;20204;-28
2021/01/01 05:17:13;;;;;;;13.13;11.90;;;10.70;99.90;;;;;;5014396;28;20257;-28
2021/01/01 05:19:44;;;;;;;12.00;10.80;;;10.70;99.90;;;;;;5016324;28;20255;-28
2021/01/01 05:22:14;;;;;;;11.60;10.50;;;10.70;99.90;;;;;;5010128;28;20675;-28
2021/01/01 05:24:47;;;;;;;11.55;10.57;;;10.70;99.90;;;;;;5007136;28;20274;-28
2021/01/01 05:27:18;;;;;;;12.18;10.98;;;10.70;99.90;;;;;;5010318;28;20189;-28
2021/01/01 05:29:54;;;;;;;11.43;10.30;;;10.70;99.90;;;;;;5010732;28;20232;-27
2021/01/01 05:32:25;;;;;;;11.82;10.70;;;10.70;99.90;;;;;;5010653;28;20303;-27
2021/01/01 05:34:56;;;;;;;12.43;10.05;;;10.70;99.90;;;;;;5006283;28;20284;-28
2021/01/01 05:37:31;;;;;;;11.60;10.50;;;10.60;99.90;;;;;;5011422;28;20202;-28
2021/01/01 05:40:09;;;;;;;11.60;10.50;;;10.60;99.90;;;;;;5010167;28;20224;-27
2021/01/01 05:42:40;;;;;;;12.20;10.73;;;10.60;99.90;;;;;;5006945;28;20257;-27
2021/01/01 05:45:17;;;;;;;12.98;11.70;;;10.70;99.90;;;;;;5005104;28;20259;-27
2021/01/01 05:48:04;;;;;;;11.60;10.50;;;10.70;99.90;;;;;;5007913;28;20183;-27
2021/01/01 05:50:36;;;;;;;13.07;11.68;;;10.70;99.90;;;;;;5010317;28;20819;-28
2021/01/01 05:53:17;;;;;;;11.93;10.85;;;10.80;99.90;;;;;;4994717;28;20188;-28
2021/01/01 05:55:49;;;;;;;11.05;10.05;;;10.90;99.90;;;;;;5010066;28;20230;-27
2021/01/01 05:58:23;;;;;;;16.83;14.82;;;10.90;99.90;;;;;;5010036;28;20189;-27
2021/01/01 06:00:55;;;;;;;28.45;25.95;;;10.90;99.90;;;;;;5006597;28;20187;-27
2021/01/01 06:03:32;;;;;;;56.08;50.50;;;10.80;99.90;;;;;;5009256;28;20208;-27
2021/01/01 06:06:04;;;;;;;16.90;15.30;;;10.80;99.90;;;;;;5010223;28;20227;-27
2021/01/01 06:08:35;;;;;;;15.00;13.70;;;10.80;99.90;;;;;;5010230;28;20533;-29
2021/01/01 06:11:11;;;;;;;15.10;13.80;;;10.90;99.90;;;;;;5009145;28;20199;-28
2021/01/01 06:13:50;;;;;;;13.30;12.13;;;10.80;99.90;;;;;;5009898;28;20200;-28
2021/01/01 06:16:27;;;;;;;12.45;11.25;;;10.90;99.90;;;;;;5006596;28;20188;-28
2021/01/01 06:19:05;;;;;;;11.88;10.65;;;10.90;99.90;;;;;;5010102;28;20219;-28
2021/01/01 06:21:41;;;;;;;12.05;11.05;;;10.90;99.90;;;;;;5010292;28;20197;-28
2021/01/01 06:24:20;;;;;;;9.70;8.90;;;10.80;99.90;;;;;;5009852;28;20195;-28
2021/01/01 06:26:51;;;;;;;10.52;9.52;;;10.90;99.90;;;;;;5008610;28;20581;-27
2021/01/01 06:29:21;;;;;;;7.68;7.03;;;10.80;99.90;;;;;;5009357;28;20204;-27
2021/01/01 06:31:51;;;;;;;8.48;7.68;;;10.80;99.90;;;;;;5005135;28;20216;-27
2021/01/01 06:34:29;;;;;;;9.15;8.30;;;10.80;99.90;;;;;;5005874;28;20207;-28
2021/01/01 06:36:59;;;;;;;9.60;8.70;;;10.80;99.90;;;;;;5008469;28;20219;-28
2021/01/01 06:39:53;;;;;;;9.00;8.20;;;10.80;99.90;;;;;;4993969;28;20267;-28
2021/01/01 06:42:51;;;;;;;61.28;55.75;;;10.80;99.90;;;;;;4995750;28;20200;-28
2021/01/01 06:45:39;;;;;;;82.68;76.25;;;10.70;99.90;;;;;;5006830;28;20283;-27
2021/01/01 06:48:11;;;;;;;56.75;51.42;;;10.70;99.90;;;;;;5007792;28;20573;-27
2021/01/01 06:50:42;;;;;;;66.55;60.35;;;10.60;99.90;;;;;;5009238;28;20259;-27
2021/01/01 06:53:13;;;;;;;93.35;85.15;;;10.60;99.90;;;;;;5008392;28;20204;-27
2021/01/01 06:55:45;;;;;;;34.58;31.45;;;10.60;99.90;;;;;;5009373;28;20200;-27
2021/01/01 06:58:24;;;;;;;36.97;33.67;;;10.60;99.90;;;;;;5008727;28;20211;-27
2021/01/01 07:00:58;;;;;;;28.15;25.42;;;10.50;99.90;;;;;;4994885;28;20201;-27
2021/01/01 07:03:40;;;;;;;22.67;20.55;;;10.50;99.90;;;;;;5009363;28;20618;-27
2021/01/01 07:06:43;;;;;;;22.70;19.10;;;10.40;99.90;;;;;;5006016;28;20231;-28
2021/01/01 07:09:14;;;;;;;17.95;16.10;;;10.40;99.90;;;;;;4999146;28;20218;-27
2021/01/01 07:11:45;;;;;;;20.05;17.95;;;10.30;99.90;;;;;;5008150;28;20239;-27
2021/01/01 07:14:21;;;;;;;20.60;16.35;;;10.30;99.90;;;;;;5008701;28;20266;-28
2021/01/01 07:16:57;;;;;;;18.05;16.13;;;10.30;99.90;;;;;;5001627;28;20523;-28
2021/01/01 07:19:30;;;;;;;19.05;17.15;;;10.10;99.90;;;;;;5009607;28;20207;-27
2021/01/01 07:22:00;;;;;;;22.75;18.55;;;10.10;99.90;;;;;;5003539;28;20263;-27
2021/01/01 07:24:30;;;;;;;19.30;17.23;;;10.20;99.90;;;;;;5009139;28;20212;-27
2021/01/01 07:27:01;;;;;;;27.98;25.25;;;10.10;99.90;;;;;;5009004;28;20251;-28
2021/01/01 07:29:32;;;;;;;24.98;22.38;;;10.10;99.90;;;;;;5008820;28;20234;-28
2021/01/01 07:32:03;;;;;;;27.60;24.67;;;10.00;99.90;;;;;;5003748;28;20726;-26
2021/01/01 07:34:34;;;;;;;25.80;23.10;;;10.00;99.90;;;;;;5005526;28;20592;-27
2021/01/01 07:37:04;;;;;;;26.33;23.52;;;10.00;99.90;;;;;;5010619;28;20635;-27
2021/01/01 07:39:35;;;;;;;25.50;22.80;;;9.90;99.90;;;;;;5013136;28;20204;-27
2021/01/01 07:42:06;;;;;;;26.25;23.45;;;9.80;99.90;;;;;;5012726;28;20527;-28
2021/01/01 07:44:37;;;;;;;25.35;22.73;;;9.80;99.90;;;;;;5012068;28;20211;-27
2021/01/01 07:47:12;;;;;;;24.70;21.95;;;9.80;99.90;;;;;;5012477;28;20704;-27
2021/01/01 07:49:42;;;;;;;24.63;22.02;;;9.80;99.90;;;;;;5012465;28;20575;-27
2021/01/01 07:52:16;;;;;;;22.45;20.23;;;9.70;99.90;;;;;;5012938;28;20252;-27
2021/01/01 07:54:50;;;;;;;22.45;20.08;;;9.70;99.90;;;;;;5008324;28;20191;-27
2021/01/01 07:57:24;;;;;;;24.00;21.55;;;9.80;99.90;;;;;;5003655;28;20196;-27
2021/01/01 08:00:00;;;;;;;24.88;22.48;;;9.90;99.90;;;;;;5011800;28;20195;-27
2021/01/01 08:02:32;;;;;;;26.08;23.45;;;9.90;99.90;;;;;;5012234;28;20239;-27
2021/01/01 08:05:05;;;;;;;25.75;23.08;;;9.80;99.90;;;;;;5012158;28;20303;-28
2021/01/01 08:07:35;;;;;;;25.02;22.63;;;9.70;99.90;;;;;;5012387;28;20304;-28
2021/01/01 08:10:06;;;;;;;25.80;23.20;;;9.70;99.90;;;;;;5012571;28;20204;-28
2021/01/01 08:12:39;;;;;;;24.85;22.23;;;9.80;99.90;;;;;;5011469;28;20350;-28
2021/01/01 08:15:11;;;;;;;27.45;24.75;;;9.70;99.90;;;;;;5011590;28;20204;-28
2021/01/01 08:17:41;;;;;;;26.40;23.67;;;9.80;99.90;;;;;;5012425;28;20205;-28
2021/01/01 08:20:17;;;;;;;26.52;23.67;;;9.80;99.90;;;;;;5011987;28;20209;-28
2021/01/01 08:22:51;;;;;;;25.15;22.52;;;9.80;99.90;;;;;;5004593;28;20515;-28
2021/01/01 08:25:21;;;;;;;29.67;25.45;;;10.00;99.90;;;;;;5012351;28;20225;-28
2021/01/01 08:27:51;;;;;;;29.35;26.00;;;10.00;99.90;;;;;;5011857;28;20199;-28
2021/01/01 08:30:23;;;;;;;28.23;25.15;;;9.80;99.90;;;;;;5011457;28;20211;-28
2021/01/01 08:32:54;;;;;;;28.73;25.80;;;9.70;99.90;;;;;;5010780;28;20199;-28
2021/01/01 08:35:25;;;;;;;26.92;24.23;;;9.80;99.90;;;;;;5011799;28;20206;-28
2021/01/01 08:37:55;;;;;;;25.20;22.60;;;9.60;99.90;;;;;;5011978;28;20199;-28
2021/01/01 08:40:25;;;;;;;26.95;24.20;;;9.60;99.90;;;;;;5012427;28;20266;-27
2021/01/01 08:42:56;;;;;;;29.15;25.98;;;9.60;99.90;;;;;;5011783;28;20262;-27
2021/01/01 08:45:32;;;;;;;29.65;25.08;;;9.60;99.90;;;;;;5011016;28;20203;-27
2021/01/01 08:48:10;;;;;;;27.10;24.20;;;9.50;99.90;;;;;;5010727;28;20192;-27
2021/01/01 08:50:48;;;;;;;27.23;24.38;;;9.40;99.90;;;;;;5011983;28;20200;-27
2021/01/01 08:53:19;;;;;;;30.42;27.17;;;9.50;99.90;;;;;;5011733;28;20196;-28
2021/01/01 08:55:58;;;;;;;29.83;26.77;;;9.50;99.90;;;;;;5004166;28;20242;-28
2021/01/01 08:58:29;;;;;;;30.65;27.35;;;9.40;99.90;;;;;;5010849;28;20210;-28
2021/01/01 09:01:20;;;;;;;32.00;28.50;;;9.40;99.90;;;;;;5010160;28;20209;-28
2021/01/01 09:04:01;;;;;;;35.42;30.55;;;9.50;99.90;;;;;;5011958;28;20296;-27
2021/01/01 09:06:32;;;;;;;33.80;28.25;;;9.40;99.90;;;;;;5011177;28;20230;-27
2021/01/01 09:09:07;;;;;;;36.22;29.40;;;9.40;99.90;;;;;;5011026;28;20247;-27
2021/01/01 09:11:37;;;;;;;34.25;30.45;;;9.40;99.90;;;;;;5010934;28;20261;-27
2021/01/01 09:14:08;;;;;;;36.95;32.95;;;9.50;99.90;;;;;;5011290;28;20201;-28
2021/01/01 09:16:50;;;;;;;34.30;30.15;;;9.50;99.90;;;;;;5008127;28;20203;-27
2021/01/01 09:19:20;;;;;;;43.92;34.60;;;9.50;99.90;;;;;;5010024;28;20196;-27
2021/01/01 09:21:50;;;;;;;42.92;37.15;;;9.50;99.90;;;;;;5010765;28;20301;-28
2021/01/01 09:24:25;;;;;;;46.33;37.88;;;9.50;99.90;;;;;;5010855;28;20214;-28
2021/01/01 09:27:00;;;;;;;54.17;41.03;;;9.50;99.90;;;;;;5010278;28;20268;-28
2021/01/01 09:29:31;;;;;;;48.67;40.33;;;9.50;99.90;;;;;;5011060;28;20199;-28
2021/01/01 09:32:07;;;;;;;52.97;41.95;;;9.40;99.90;;;;;;5011071;28;20566;-28
2021/01/01 09:34:37;;;;;;;52.92;41.80;;;9.40;99.90;;;;;;5010861;28;20204;-27
2021/01/01 09:37:11;;;;;;;55.22;41.67;;;9.50;99.90;;;;;;5011120;28;20254;-28
2021/01/01 09:39:41;;;;;;;48.38;40.28;;;9.40;99.90;;;;;;5010850;28;20198;-28
2021/01/01 09:42:11;;;;;;;46.65;38.15;;;9.40;99.90;;;;;;5010289;28;20214;-27
2021/01/01 09:44:41;;;;;;;52.53;41.83;;;9.30;99.90;;;;;;5010175;28;20649;-28
2021/01/01 09:47:12;;;;;;;44.80;35.80;;;9.30;99.90;;;;;;4998367;28;20224;-28
2021/01/01 09:49:42;;;;;;;40.28;32.88;;;9.40;99.90;;;;;;5010730;28;20569;-28
2021/01/01 09:52:13;;;;;;;34.10;29.15;;;9.40;99.90;;;;;;5010471;28;20556;-28
2021/01/01 09:54:43;;;;;;;42.53;33.63;;;9.40;99.90;;;;;;5010154;28;20208;-29
2021/01/01 09:57:13;;;;;;;37.05;29.40;;;9.50;99.90;;;;;;5010147;28;20210;-28
2021/01/01 09:59:43;;;;;;;33.05;27.25;;;9.50;99.90;;;;;;5009809;28;20207;-28
2021/01/01 10:02:14;;;;;;;35.10;30.77;;;9.50;99.90;;;;;;5010416;28;20214;-28
2021/01/01 10:04:44;;;;;;;45.35;40.63;;;9.40;99.90;;;;;;5004643;28;20199;-28
2021/01/01 10:07:15;;;;;;;37.40;31.48;;;9.30;99.90;;;;;;5009834;28;20717;-28
2021/01/01 10:09:45;;;;;;;27.13;22.38;;;9.40;99.90;;;;;;4994587;28;20196;-28
2021/01/01 10:12:19;;;;;;;23.92;20.02;;;9.40;99.90;;;;;;5003160;28;20227;-28
2021/01/01 10:14:50;;;;;;;25.75;21.00;;;9.50;99.90;;;;;;5007523;28;20199;-28
2021/01/01 10:17:21;;;;;;;25.15;20.13;;;9.50;99.90;;;;;;5004754;28;20208;-28
2021/01/01 10:19:52;;;;;;;19.23;17.20;;;9.50;99.90;;;;;;5004285;28;20184;-27
2021/01/01 10:22:22;;;;;;;20.48;18.27;;;9.40;99.90;;;;;;5010453;28;20195;-28
2021/01/01 10:24:52;;;;;;;19.58;16.02;;;9.30;99.90;;;;;;5009910;28;20636;-29
2021/01/01 10:27:22;;;;;;;17.17;15.43;;;9.30;99.90;;;;;;5009127;28;20223;-29
2021/01/01 10:29:52;;;;;;;22.10;19.55;;;9.30;99.90;;;;;;5009335;28;20651;-28
2021/01/01 10:32:23;;;;;;;19.67;16.10;;;9.40;99.90;;;;;;5008966;28;20223;-28
2021/01/01 10:34:53;;;;;;;48.42;38.47;;;9.40;99.90;;;;;;5006512;28;20627;-28
2021/01/01 10:37:23;;;;;;;21.65;17.05;;;9.40;99.90;;;;;;5009665;28;20219;-28
2021/01/01 10:39:53;;;;;;;20.80;18.10;;;9.20;99.90;;;;;;5008075;28;20210;-28
2021/01/01 10:42:26;;;;;;;25.98;19.10;;;9.20;99.90;;;;;;5005626;28;20203;-28
2021/01/01 10:44:56;;;;;;;23.25;19.80;;;9.20;99.90;;;;;;5008047;28;20226;-28
2021/01/01 10:47:28;;;;;;;24.63;22.02;;;9.30;99.90;;;;;;5008985;28;20222;-28
2021/01/01 10:49:58;;;;;;;25.05;21.30;;;9.20;99.90;;;;;;5009140;28;20609;-28
2021/01/01 10:52:28;;;;;;;24.58;20.42;;;9.20;99.90;;;;;;4998433;28;20661;-28
2021/01/01 10:54:58;;;;;;;24.35;21.67;;;9.20;99.90;;;;;;5007399;28;20199;-28
2021/01/01 10:57:28;;;;;;;26.95;22.65;;;9.20;99.90;;;;;;5007253;28;20203;-28
2021/01/01 10:59:58;;;;;;;25.77;22.00;;;9.20;99.90;;;;;;5004007;28;20730;-28
2021/01/01 11:02:29;;;;;;;25.70;22.50;;;9.20;99.90;;;;;;4994211;28;20215;-28
2021/01/01 11:04:59;;;;;;;27.25;22.13;;;9.10;99.90;;;;;;5007185;28;20222;-28
2021/01/01 11:07:30;;;;;;;27.92;20.23;;;9.20;99.90;;;;;;5005776;28;20549;-27
2021/01/01 11:10:00;;;;;;;24.20;19.60;;;9.20;99.90;;;;;;5009962;28;20679;-27
2021/01/01 11:12:32;;;;;;;26.88;21.65;;;9.20;99.90;;;;;;5013741;28;20317;-29
2021/01/01 12:19:22;;;;;;;23.20;20.70;;;9.20;99.90;;;;;;5015829;28;20202;-28
2021/01/01 12:22:49;;;;;;;2.15;1.95;;;9.40;99.90;;;;;;5014368;28;20208;-28
2021/01/01 12:25:21;;;;;;;2.50;1.80;;;9.40;99.90;;;;;;5011957;28;20193;-28
2021/01/01 12:27:52;;;;;;;1.70;1.40;;;9.50;99.90;;;;;;5002145;28;20289;-28
2021/01/01 12:30:23;;;;;;;2.60;1.92;;;9.50;99.90;;;;;;5011495;28;20212;-28
2021/01/01 12:32:54;;;;;;;2.85;1.88;;;9.50;99.90;;;;;;5012157;28;20242;-29
2021/01/01 12:35:24;;;;;;;1.67;1.55;;;9.60;99.90;;;;;;5011527;28;20227;-28
2021/01/01 12:38:02;;;;;;;1.63;1.50;;;9.70;99.90;;;;;;5012163;28;20261;-32
2021/01/01 12:40:36;;;;;;;1.50;1.35;;;9.70;99.90;;;;;;5010666;28;20218;-28
2021/01/01 12:43:06;;;;;;;1.98;1.77;;;9.70;99.90;;;;;;5011838;28;20678;-28
2021/01/01 12:45:36;;;;;;;1.67;1.58;;;9.70;99.90;;;;;;5010602;28;20251;-28
2021/01/01 12:48:23;;;;;;;2.65;1.75;;;9.60;99.90;;;;;;5011741;28;20300;-28
2021/01/01 12:50:52;;;;;;;2.08;1.70;;;9.60;99.90;;;;;;5008792;28;20258;-28
2021/01/01 12:53:23;;;;;;;2.33;1.50;;;9.60;99.90;;;;;;5010720;28;20226;-28
2021/01/01 12:55:56;;;;;;;1.80;1.30;;;9.60;99.90;;;;;;5007551;28;20538;-27
2021/01/01 12:58:26;;;;;;;1.38;1.25;;;9.50;99.90;;;;;;5003036;28;20769;-28
2021/01/01 13:00:56;;;;;;;1.65;1.55;;;9.50;99.90;;;;;;5011531;28;20207;-28
2021/01/01 13:03:26;;;;;;;1.42;1.33;;;9.50;99.90;;;;;;5011287;28;20698;-28
2021/01/01 13:05:56;;;;;;;2.35;1.20;;;9.50;99.90;;;;;;5011819;28;20750;-28
2021/01/01 13:08:26;;;;;;;1.33;1.20;;;9.50;99.90;;;;;;5011310;28;20207;-28
2021/01/01 13:10:57;;;;;;;1.00;1.00;;;9.50;99.90;;;;;;5006848;28;20207;-29
2021/01/01 13:13:27;;;;;;;1.60;1.50;;;9.40;99.90;;;;;;5010858;28;20193;-28
2021/01/01 13:15:57;;;;;;;1.60;1.50;;;9.40;99.90;;;;;;5011143;28;20195;-28
2021/01/01 13:18:27;;;;;;;1.63;1.52;;;9.40;99.90;;;;;;5010770;28;20207;-28
2021/01/01 13:20:57;;;;;;;6.25;1.60;;;9.50;99.90;;;;;;5010597;28;20285;-27
2021/01/01 13:23:27;;;;;;;1.27;1.17;;;9.50;99.90;;;;;;5011158;28;20241;-28
2021/01/01 13:25:59;;;;;;;2.80;1.70;;;9.50;99.90;;;;;;5009933;28;20257;-28
2021/01/01 13:28:30;;;;;;;1.70;1.60;;;9.50;99.90;;;;;;5008800;28;20202;-28
2021/01/01 13:31:00;;;;;;;1.38;1.20;;;9.50;99.90;;;;;;5008953;28;20727;-28
2021/01/01 13:33:30;;;;;;;2.08;1.00;;;9.50;99.90;;;;;;5003797;28;20203;-28
2021/01/01 13:36:00;;;;;;;1.30;1.20;;;9.50;99.90;;;;;;5010380;28;20199;-28
2021/01/01 13:38:30;;;;;;;1.20;1.10;;;9.50;99.90;;;;;;5010833;28;20551;-28
2021/01/01 13:41:01;;;;;;;2.25;1.02;;;9.60;99.90;;;;;;5010863;28;20199;-29
2021/01/01 13:43:31;;;;;;;1.52;1.30;;;9.50;99.90;;;;;;5010912;28;20269;-28
2021/01/01 13:46:02;;;;;;;3.13;1.50;;;9.40;99.90;;;;;;5009972;28;20192;-28
2021/01/01 13:48:33;;;;;;;1.55;1.00;;;9.40;99.90;;;;;;5010583;28;20200;-29
2021/01/01 13:51:03;;;;;;;1.60;1.50;;;9.50;99.90;;;;;;5004141;28;20242;-28
2021/01/01 13:53:33;;;;;;;1.58;1.15;;;9.60;99.90;;;;;;5007647;28;20215;-28
2021/01/01 13:56:05;;;;;;;1.23;1.13;;;9.60;99.90;;;;;;5007578;28;20590;-28
2021/01/01 13:58:35;;;;;;;1.30;1.20;;;9.60;99.90;;;;;;4999321;28;20432;-29
2021/01/01 14:01:05;;;;;;;1.40;1.30;;;9.50;99.90;;;;;;5009667;28;20682;-28
2021/01/01 14:03:35;;;;;;;1.35;1.25;;;9.60;99.90;;;;;;5010686;28;20200;-29
2021/01/01 14:06:20;;;;;;;2.85;1.30;;;9.50;99.90;;;;;;5005025;28;20267;-28